Time;durP1;ratioP1;P1;durP2;ratioP2;P2;SDS_P1;SDS_P2;PMS_P1;PMS_P2;Temp;Humidity;BMP_temperature;BMP_pressure;BME280_temperature;BME280_humidity;BME280_pressure;Samples;Min_cycle;Max_cycle;Signal;HPM_P1;HPM_P2
2024/01/07 00:01:35;;;;;;;29.05;19.50;;;2.90;99.90;;;;;;5099703;28;20035;-82
2024/01/07 00:04:01;;;;;;;31.38;22.02;;;2.90;99.90;;;;;;5068647;28;20017;-81
2024/01/07 00:06:26;;;;;;;32.15;21.10;;;2.80;99.90;;;;;;5084612;28;20021;-83
2024/01/07 00:08:52;;;;;;;32.60;22.45;;;2.80;99.90;;;;;;5076386;28;20036;-83
2024/01/07 00:11:18;;;;;;;33.20;23.13;;;2.80;99.90;;;;;;5057569;28;20028;-83
2024/01/07 00:13:44;;;;;;;35.08;23.90;;;2.80;99.90;;;;;;5057437;28;20032;-82
2024/01/07 00:16:10;;;;;;;34.88;23.50;;;2.90;99.90;;;;;;5035953;28;20033;-83
2024/01/07 00:18:35;;;;;;;33.10;22.13;;;2.90;99.90;;;;;;5056700;28;20013;-83
2024/01/07 00:21:01;;;;;;;35.03;21.50;;;2.90;99.90;;;;;;5073203;28;20021;-81
2024/01/07 00:23:27;;;;;;;34.25;21.92;;;2.90;99.90;;;;;;5062009;28;20043;-83
2024/01/07 00:25:52;;;;;;;32.60;22.23;;;3.00;99.90;;;;;;5056988;28;20032;-83
2024/01/07 00:28:18;;;;;;;31.90;20.13;;;3.00;99.90;;;;;;5056888;28;20028;-84
2024/01/07 00:30:44;;;;;;;35.90;23.48;;;3.00;99.90;;;;;;5056916;28;20055;-83
2024/01/07 00:33:09;;;;;;;37.60;23.77;;;3.00;99.90;;;;;;5072735;28;20045;-83
2024/01/07 00:35:35;;;;;;;37.28;24.42;;;3.00;99.90;;;;;;5073327;28;20025;-84
2024/01/07 00:38:01;;;;;;;44.95;27.02;;;2.90;99.90;;;;;;5073369;28;20456;-83
2024/01/07 00:40:26;;;;;;;38.08;24.73;;;2.90;99.90;;;;;;5054739;28;20021;-83
2024/01/07 00:42:52;;;;;;;39.67;25.17;;;2.80;99.90;;;;;;5073351;28;20052;-83
2024/01/07 00:45:18;;;;;;;37.05;24.42;;;2.80;99.90;;;;;;5073410;28;20025;-83
2024/01/07 00:47:44;;;;;;;43.75;27.00;;;2.80;99.90;;;;;;5073600;28;20108;-83
2024/01/07 00:50:10;;;;;;;43.25;26.65;;;2.70;99.90;;;;;;5072855;28;20134;-83
2024/01/07 00:52:37;;;;;;;42.47;26.60;;;2.70;99.90;;;;;;5073242;28;20035;-83
2024/01/07 00:55:06;;;;;;;51.10;29.88;;;2.70;99.90;;;;;;5071280;28;20330;-83
2024/01/07 00:57:34;;;;;;;55.13;30.85;;;2.70;99.90;;;;;;5053584;28;20377;-83
2024/01/07 01:00:04;;;;;;;47.08;27.33;;;2.60;99.90;;;;;;5069975;28;20108;-83
2024/01/07 01:02:30;;;;;;;48.65;28.88;;;2.60;99.90;;;;;;5053529;28;20044;-81
2024/01/07 01:04:56;;;;;;;46.80;27.92;;;2.60;99.90;;;;;;5053868;28;20021;-83
2024/01/07 01:07:21;;;;;;;46.55;27.52;;;2.60;99.90;;;;;;5022490;28;20033;-83
2024/01/07 01:09:47;;;;;;;47.42;27.00;;;2.60;99.90;;;;;;5057014;28;20032;-83
2024/01/07 01:12:12;;;;;;;43.67;26.30;;;2.70;99.90;;;;;;5057310;28;20400;-83
2024/01/07 01:14:38;;;;;;;45.55;27.35;;;2.70;99.90;;;;;;5040507;28;20032;-83
2024/01/07 01:17:04;;;;;;;41.92;26.58;;;2.70;99.90;;;;;;5085552;28;20034;-83
2024/01/07 01:19:30;;;;;;;39.95;24.77;;;2.70;99.90;;;;;;5080693;28;20020;-82
2024/01/07 01:21:55;;;;;;;43.33;26.67;;;2.70;99.90;;;;;;5064311;28;20020;-83
2024/01/07 01:24:21;;;;;;;42.97;26.40;;;2.70;99.90;;;;;;5089362;28;20024;-83
2024/01/07 01:26:47;;;;;;;39.25;24.48;;;2.70;99.90;;;;;;5058773;28;20028;-83
2024/01/07 01:29:12;;;;;;;35.35;23.35;;;2.70;99.90;;;;;;5072984;28;20033;-83
2024/01/07 01:31:38;;;;;;;36.33;24.55;;;2.70;99.90;;;;;;5072385;28;20032;-83
2024/01/07 01:34:03;;;;;;;35.13;23.67;;;2.80;99.90;;;;;;5072385;28;20063;-83
2024/01/07 01:36:31;;;;;;;35.15;24.08;;;2.90;99.90;;;;;;5059782;28;20040;-83
2024/01/07 01:38:57;;;;;;;34.72;23.17;;;2.80;99.90;;;;;;5072782;28;20155;-83
2024/01/07 01:41:25;;;;;;;36.00;24.40;;;2.80;99.90;;;;;;5055007;28;20072;-83
2024/01/07 01:43:56;;;;;;;39.75;25.42;;;2.70;99.90;;;;;;5072194;28;20111;-83
2024/01/07 01:46:22;;;;;;;30.27;21.30;;;2.70;99.90;;;;;;5056217;28;20544;-83
2024/01/07 01:48:48;;;;;;;29.10;19.73;;;2.70;99.90;;;;;;5052300;28;20121;-83
2024/01/07 01:51:14;;;;;;;30.85;20.70;;;2.80;99.90;;;;;;5065998;28;20062;-83
2024/01/07 01:53:40;;;;;;;34.65;21.83;;;2.90;99.90;;;;;;5039187;28;20033;-83
2024/01/07 01:56:06;;;;;;;31.27;21.73;;;2.90;99.90;;;;;;5060582;28;20032;-83
2024/01/07 01:58:32;;;;;;;36.10;23.73;;;2.90;99.90;;;;;;5071716;28;20064;-83
2024/01/07 02:00:59;;;;;;;32.90;22.33;;;3.00;99.90;;;;;;5055267;28;20048;-83
2024/01/07 02:03:25;;;;;;;33.17;21.40;;;2.90;99.90;;;;;;5071789;28;20028;-84
2024/01/07 02:05:52;;;;;;;34.78;23.33;;;2.90;99.90;;;;;;5071884;28;20024;-83
2024/01/07 02:08:19;;;;;;;33.08;22.98;;;2.80;99.90;;;;;;5071688;28;20025;-83
2024/01/07 02:10:45;;;;;;;32.28;22.23;;;2.80;99.90;;;;;;5072239;28;20120;-83
2024/01/07 02:13:11;;;;;;;34.67;22.10;;;2.80;99.90;;;;;;5054219;28;20109;-82
2024/01/07 02:15:37;;;;;;;34.75;22.92;;;2.80;99.90;;;;;;5036460;28;20526;-83
2024/01/07 02:18:03;;;;;;;36.80;23.02;;;2.80;99.90;;;;;;5043020;28;20036;-83
2024/01/07 02:20:29;;;;;;;38.33;24.00;;;2.80;99.90;;;;;;5055171;28;20031;-84
2024/01/07 02:22:54;;;;;;;33.95;23.17;;;2.80;99.90;;;;;;5038599;28;20033;-83
2024/01/07 02:25:20;;;;;;;37.20;23.73;;;2.80;99.90;;;;;;5054296;28;20036;-83
2024/01/07 02:27:46;;;;;;;37.70;24.35;;;2.80;99.90;;;;;;5072573;28;20033;-83
2024/01/07 02:30:12;;;;;;;42.08;25.45;;;2.70;99.90;;;;;;5039920;28;20033;-84
2024/01/07 02:32:37;;;;;;;39.20;24.45;;;2.80;99.90;;;;;;5056195;28;20040;-84
2024/01/07 02:35:04;;;;;;;43.95;26.42;;;2.80;99.90;;;;;;5089299;28;20013;-83
2024/01/07 02:37:29;;;;;;;40.95;25.00;;;2.70;99.90;;;;;;5095667;28;20021;-83
2024/01/07 02:39:55;;;;;;;45.70;27.08;;;2.70;99.90;;;;;;5096237;28;20034;-83
2024/01/07 02:42:21;;;;;;;44.55;26.67;;;2.70;99.90;;;;;;5082084;28;20057;-83
2024/01/07 02:44:46;;;;;;;43.58;25.58;;;2.60;99.90;;;;;;5052224;28;20054;-83
2024/01/07 02:47:12;;;;;;;38.83;24.20;;;2.60;99.90;;;;;;5060037;28;20031;-84
2024/01/07 02:49:38;;;;;;;42.05;25.00;;;2.50;99.90;;;;;;5058934;28;20119;-83
2024/01/07 02:52:04;;;;;;;34.92;22.90;;;2.50;99.90;;;;;;5075610;28;20047;-83
2024/01/07 02:54:29;;;;;;;34.05;22.33;;;2.50;99.90;;;;;;5076224;28;20029;-83
2024/01/07 02:56:55;;;;;;;42.80;24.42;;;2.50;99.90;;;;;;5058973;28;20028;-83
2024/01/07 02:59:21;;;;;;;40.35;23.73;;;2.40;99.90;;;;;;5055523;28;20453;-81
2024/01/07 03:01:46;;;;;;;34.10;21.60;;;2.40;99.90;;;;;;5038769;28;20037;-83
2024/01/07 03:04:15;;;;;;;35.58;21.60;;;2.40;99.90;;;;;;5075313;28;20380;-83
2024/01/07 03:06:40;;;;;;;34.95;20.83;;;2.40;99.90;;;;;;5075227;28;20395;-83
2024/01/07 03:09:06;;;;;;;31.90;20.33;;;2.50;99.90;;;;;;5075199;28;20029;-83
2024/01/07 03:11:38;;;;;;;31.25;20.40;;;2.40;99.90;;;;;;5076036;28;20082;-83
2024/01/07 03:14:04;;;;;;;33.78;21.83;;;2.40;99.90;;;;;;5059234;28;20028;-83
2024/01/07 03:16:30;;;;;;;31.10;19.70;;;2.40;99.90;;;;;;5057312;28;20377;-83
2024/01/07 03:18:55;;;;;;;28.50;19.00;;;2.50;99.90;;;;;;5058348;28;20396;-84
2024/01/07 03:21:25;;;;;;;27.35;18.58;;;2.50;99.90;;;;;;5058407;28;20071;-83
2024/01/07 03:23:51;;;;;;;26.95;16.23;;;2.50;99.90;;;;;;5038924;28;20476;-84
2024/01/07 03:26:18;;;;;;;26.27;17.35;;;2.60;99.90;;;;;;5073747;28;20029;-84
2024/01/07 03:28:44;;;;;;;23.00;16.08;;;2.60;99.90;;;;;;5076283;28;20033;-83
2024/01/07 03:31:12;;;;;;;22.50;16.52;;;2.60;99.90;;;;;;5057189;28;20130;-82
2024/01/07 03:33:39;;;;;;;22.80;16.40;;;2.60;99.90;;;;;;5065586;28;20116;-83
2024/01/07 03:36:13;;;;;;;18.27;14.68;;;2.60;99.90;;;;;;5075145;28;20033;-83
2024/01/07 03:38:40;;;;;;;22.95;15.55;;;2.60;99.90;;;;;;5074589;28;20028;-83
2024/01/07 03:41:06;;;;;;;19.95;14.85;;;2.60;99.90;;;;;;5074619;28;20032;-83
2024/01/07 03:43:35;;;;;;;18.98;14.10;;;2.60;99.90;;;;;;5074764;28;20024;-83
2024/01/07 03:46:01;;;;;;;18.42;13.20;;;2.70;99.90;;;;;;5075354;28;20048;-83
2024/01/07 03:48:27;;;;;;;20.27;15.20;;;2.70;99.90;;;;;;5070497;28;20472;-81
2024/01/07 03:50:52;;;;;;;21.40;15.07;;;2.70;99.90;;;;;;5081606;28;20032;-83
2024/01/07 03:53:18;;;;;;;20.40;15.07;;;2.70;99.90;;;;;;5079642;28;20080;-84
2024/01/07 03:55:44;;;;;;;19.80;14.35;;;2.60;99.90;;;;;;5062449;28;20032;-83
2024/01/07 03:58:09;;;;;;;18.40;14.43;;;2.70;99.90;;;;;;5089745;28;20119;-83
2024/01/07 04:00:36;;;;;;;20.60;14.25;;;2.60;99.90;;;;;;5085355;28;20056;-83
2024/01/07 04:03:02;;;;;;;19.52;13.80;;;2.50;99.90;;;;;;5075616;28;20449;-83
2024/01/07 04:05:29;;;;;;;19.88;13.73;;;2.50;99.90;;;;;;5041387;28;20067;-83
2024/01/07 04:07:55;;;;;;;18.27;13.15;;;2.50;99.90;;;;;;5073721;28;20048;-82
2024/01/07 04:10:20;;;;;;;19.77;14.30;;;2.60;99.90;;;;;;5056501;28;20052;-83
2024/01/07 04:12:46;;;;;;;17.98;13.70;;;2.60;99.90;;;;;;5074184;28;20037;-84
2024/01/07 04:15:12;;;;;;;19.83;14.50;;;2.60;99.90;;;;;;5057697;28;20411;-83
2024/01/07 04:17:38;;;;;;;20.83;14.55;;;2.60;99.90;;;;;;5073563;28;20028;-83
2024/01/07 04:20:05;;;;;;;21.38;15.10;;;2.70;99.90;;;;;;5056986;28;20104;-83
2024/01/07 04:22:31;;;;;;;18.95;14.13;;;2.60;99.90;;;;;;5073493;28;20465;-82
2024/01/07 04:24:56;;;;;;;19.65;15.18;;;2.50;99.90;;;;;;5073035;28;20078;-84
2024/01/07 04:27:22;;;;;;;20.58;14.40;;;2.50;99.90;;;;;;5049179;28;20377;-84
2024/01/07 04:29:48;;;;;;;19.90;15.50;;;2.50;99.90;;;;;;5059277;28;20488;-83
2024/01/07 04:32:13;;;;;;;24.45;15.95;;;2.50;99.90;;;;;;5057071;28;20036;-83
2024/01/07 04:34:39;;;;;;;18.95;14.38;;;2.50;99.90;;;;;;5073529;28;20025;-84
2024/01/07 04:37:04;;;;;;;19.90;15.55;;;2.40;99.90;;;;;;5073661;28;20033;-83
2024/01/07 04:39:30;;;;;;;21.08;15.57;;;2.40;99.90;;;;;;5073578;28;20040;-84
2024/01/07 04:41:56;;;;;;;27.75;16.77;;;2.40;99.90;;;;;;5056322;28;20562;-83
2024/01/07 04:44:21;;;;;;;21.38;16.60;;;2.50;99.90;;;;;;5056595;28;20036;-83
2024/01/07 04:46:47;;;;;;;23.48;17.30;;;2.50;99.90;;;;;;5072791;28;20082;-83
2024/01/07 04:49:13;;;;;;;21.27;16.88;;;2.40;99.90;;;;;;5072925;28;20024;-83
2024/01/07 04:51:39;;;;;;;21.60;16.52;;;2.40;99.90;;;;;;5072926;28;20124;-83
2024/01/07 04:54:05;;;;;;;21.20;16.33;;;2.40;99.90;;;;;;5072756;28;20060;-84
2024/01/07 04:56:31;;;;;;;23.55;16.40;;;2.40;99.90;;;;;;5058387;28;20461;-84
2024/01/07 04:58:57;;;;;;;23.85;17.27;;;2.30;99.90;;;;;;5060510;28;20025;-84
2024/01/07 05:01:23;;;;;;;25.23;17.08;;;2.30;99.90;;;;;;5043274;28;20362;-84
2024/01/07 05:03:48;;;;;;;21.67;15.23;;;2.30;99.90;;;;;;5062582;28;20111;-84
2024/01/07 05:06:14;;;;;;;21.63;15.25;;;2.30;99.90;;;;;;5037128;28;20025;-83
2024/01/07 05:08:43;;;;;;;21.92;15.20;;;2.30;99.90;;;;;;5063758;28;20025;-82
2024/01/07 05:11:09;;;;;;;21.67;16.10;;;2.40;99.90;;;;;;5085621;28;20009;-83
2024/01/07 05:13:35;;;;;;;20.90;16.25;;;2.50;99.90;;;;;;5081559;28;20076;-83
2024/01/07 05:16:02;;;;;;;22.20;16.40;;;2.40;99.90;;;;;;5075172;28;20021;-83
2024/01/07 05:18:28;;;;;;;21.95;16.48;;;2.30;99.90;;;;;;5072290;28;20025;-83
2024/01/07 05:20:54;;;;;;;23.63;17.60;;;2.20;99.90;;;;;;5037552;28;20041;-83
2024/01/07 05:23:20;;;;;;;21.17;15.93;;;2.20;99.90;;;;;;5073881;28;20264;-84
2024/01/07 05:25:46;;;;;;;21.63;15.48;;;2.20;99.90;;;;;;5072116;28;20052;-83
2024/01/07 05:28:12;;;;;;;21.38;16.05;;;2.20;99.90;;;;;;5072777;28;20051;-84
2024/01/07 05:30:39;;;;;;;22.33;15.23;;;2.20;99.90;;;;;;5052653;28;20582;-84
2024/01/07 05:33:04;;;;;;;21.42;14.93;;;2.20;99.90;;;;;;5052318;28;20074;-84
2024/01/07 05:35:31;;;;;;;23.70;17.65;;;2.20;99.90;;;;;;5052743;28;20087;-84
2024/01/07 05:37:57;;;;;;;21.42;16.95;;;2.20;99.90;;;;;;5072513;28;20497;-84
2024/01/07 05:40:22;;;;;;;20.85;15.80;;;2.20;99.90;;;;;;5056066;28;20086;-84
2024/01/07 05:42:48;;;;;;;20.75;15.73;;;2.20;99.90;;;;;;5071611;28;20057;-84
2024/01/07 05:45:14;;;;;;;19.65;14.77;;;2.20;99.90;;;;;;5056013;28;20131;-85
2024/01/07 05:47:40;;;;;;;21.83;15.45;;;2.10;99.90;;;;;;5073599;28;20042;-84
2024/01/07 05:50:07;;;;;;;18.88;14.85;;;2.20;99.90;;;;;;5072067;28;20056;-84
2024/01/07 05:52:36;;;;;;;20.73;15.15;;;2.10;99.90;;;;;;5070895;28;20028;-84
2024/01/07 05:55:02;;;;;;;18.50;14.93;;;2.10;99.90;;;;;;5045239;28;20055;-83
2024/01/07 05:57:28;;;;;;;18.90;14.13;;;2.10;99.90;;;;;;5051086;28;20029;-84
2024/01/07 05:59:54;;;;;;;17.00;13.77;;;2.10;99.90;;;;;;5063967;28;20469;-84
2024/01/07 06:02:22;;;;;;;16.95;13.00;;;2.10;99.90;;;;;;5055471;28;20048;-84
2024/01/07 06:04:48;;;;;;;17.30;13.18;;;2.10;99.90;;;;;;5065068;28;20052;-83
2024/01/07 06:07:13;;;;;;;18.88;13.80;;;2.10;99.90;;;;;;5055033;28;20063;-84
2024/01/07 06:09:39;;;;;;;18.10;14.20;;;2.10;99.90;;;;;;5055580;28;20020;-84
2024/01/07 06:12:05;;;;;;;19.00;15.02;;;2.10;99.90;;;;;;5062509;28;20044;-84
2024/01/07 06:14:31;;;;;;;17.58;13.80;;;2.10;99.90;;;;;;5043371;28;20017;-84
2024/01/07 06:16:56;;;;;;;17.20;12.60;;;2.20;99.90;;;;;;5032640;28;20457;-84
2024/01/07 06:19:22;;;;;;;17.40;13.98;;;2.20;99.90;;;;;;5067244;28;20074;-84
2024/01/07 06:21:47;;;;;;;16.35;12.93;;;2.20;99.90;;;;;;5025480;28;20041;-84
2024/01/07 06:24:13;;;;;;;20.17;14.65;;;2.20;99.90;;;;;;5042973;28;20029;-84
2024/01/07 06:26:40;;;;;;;16.80;13.20;;;2.20;99.90;;;;;;5098785;28;20033;-83
2024/01/07 06:29:05;;;;;;;18.38;12.30;;;2.20;99.90;;;;;;5080007;28;20081;-83
2024/01/07 06:31:31;;;;;;;17.17;11.80;;;2.10;99.90;;;;;;5081065;28;20027;-83
2024/01/07 06:33:57;;;;;;;13.65;11.13;;;2.10;99.90;;;;;;5069203;28;20039;-83
2024/01/07 06:36:23;;;;;;;16.63;12.23;;;2.10;99.90;;;;;;5059482;28;20103;-84
2024/01/07 06:38:49;;;;;;;17.15;11.80;;;2.10;99.90;;;;;;5058866;28;20067;-84
2024/01/07 06:41:15;;;;;;;18.05;12.20;;;2.10;99.90;;;;;;5054679;28;20060;-84
2024/01/07 06:43:41;;;;;;;13.88;11.00;;;2.10;99.90;;;;;;5071512;28;20041;-84
2024/01/07 06:46:06;;;;;;;15.80;12.18;;;2.20;99.90;;;;;;5057067;28;20074;-84
2024/01/07 06:48:35;;;;;;;17.38;12.95;;;2.20;99.90;;;;;;5062886;28;20465;-84
2024/01/07 06:51:00;;;;;;;17.05;12.63;;;2.10;99.90;;;;;;5063975;28;20033;-84
2024/01/07 06:53:26;;;;;;;17.25;11.95;;;2.10;99.90;;;;;;5057268;28;20390;-84
2024/01/07 06:55:51;;;;;;;16.60;11.85;;;2.10;99.90;;;;;;5073907;28;20025;-83
2024/01/07 06:58:17;;;;;;;16.70;12.38;;;2.10;99.90;;;;;;5057545;28;20032;-83
2024/01/07 07:00:43;;;;;;;15.50;11.85;;;2.00;99.90;;;;;;5037668;28;20032;-83
2024/01/07 07:03:09;;;;;;;16.30;11.88;;;2.00;99.90;;;;;;5041605;28;20046;-82
2024/01/07 07:05:34;;;;;;;18.27;12.30;;;2.10;99.90;;;;;;5020852;28;20036;-83
2024/01/07 07:08:01;;;;;;;15.63;11.30;;;2.10;99.90;;;;;;5072538;28;20033;-83
2024/01/07 07:10:26;;;;;;;16.67;11.27;;;2.10;99.90;;;;;;5057569;28;20040;-83
2024/01/07 07:12:52;;;;;;;17.77;12.73;;;2.20;99.90;;;;;;5073617;28;20036;-83
2024/01/07 07:15:18;;;;;;;16.75;13.35;;;2.10;99.90;;;;;;5074252;28;20036;-83
2024/01/07 07:17:43;;;;;;;17.55;13.07;;;2.00;99.90;;;;;;5073809;28;20020;-84
2024/01/07 07:20:10;;;;;;;15.70;13.10;;;2.00;99.90;;;;;;5054858;28;20029;-83
2024/01/07 07:22:35;;;;;;;17.30;13.23;;;2.00;99.90;;;;;;5073526;28;20055;-84
2024/01/07 07:25:02;;;;;;;16.90;11.88;;;2.00;99.90;;;;;;5073639;28;20056;-83
2024/01/07 07:27:27;;;;;;;14.70;11.73;;;1.90;99.90;;;;;;5053794;28;20029;-83
2024/01/07 07:29:53;;;;;;;16.13;11.80;;;1.90;99.90;;;;;;5057943;28;20028;-82
2024/01/07 07:32:19;;;;;;;13.93;11.45;;;1.80;99.90;;;;;;5056306;28;20182;-83
2024/01/07 07:34:44;;;;;;;15.13;11.75;;;1.80;99.90;;;;;;5057053;28;20107;-84
2024/01/07 07:37:10;;;;;;;14.52;11.13;;;1.80;99.90;;;;;;5040199;28;20097;-82
2024/01/07 07:39:35;;;;;;;13.07;10.10;;;1.70;99.90;;;;;;5074611;28;20028;-83
2024/01/07 07:42:01;;;;;;;15.82;11.06;;;1.70;99.90;;;;;;5054600;28;1113583;-81
2024/01/07 07:44:27;;;;;;;13.70;10.65;;;1.70;99.90;;;;;;5099592;28;20020;-83
2024/01/07 07:46:52;;;;;;;16.88;11.52;;;1.70;99.90;;;;;;5083403;28;20024;-83
2024/01/07 07:49:18;;;;;;;12.52;10.07;;;1.80;99.90;;;;;;5065657;28;20074;-83
2024/01/07 07:51:44;;;;;;;15.90;11.07;;;1.70;99.90;;;;;;5075137;28;20070;-83
2024/01/07 07:54:10;;;;;;;12.40;10.23;;;1.80;99.90;;;;;;5074570;28;20172;-83
2024/01/07 07:56:35;;;;;;;13.30;10.32;;;1.80;99.90;;;;;;5075653;28;20039;-83
2024/01/07 07:59:02;;;;;;;12.30;10.35;;;1.80;99.90;;;;;;5057496;28;20025;-83
2024/01/07 08:01:28;;;;;;;15.05;11.00;;;1.90;99.90;;;;;;5056951;28;20101;-83
2024/01/07 08:03:54;;;;;;;16.83;12.13;;;1.90;99.90;;;;;;5040470;28;20521;-83
2024/01/07 08:06:20;;;;;;;14.82;11.18;;;1.90;99.90;;;;;;5075258;28;20033;-83
2024/01/07 08:08:45;;;;;;;13.85;10.93;;;1.90;99.90;;;;;;5032604;28;20120;-83
2024/01/07 08:11:11;;;;;;;14.05;11.65;;;1.80;99.90;;;;;;5053756;28;20029;-83
2024/01/07 08:13:38;;;;;;;11.65;10.15;;;1.80;99.90;;;;;;5056204;28;20040;-84
2024/01/07 08:16:05;;;;;;;15.68;11.05;;;1.80;99.90;;;;;;5053714;28;20487;-84
2024/01/07 08:18:31;;;;;;;10.90;9.68;;;1.80;99.90;;;;;;5065135;28;20457;-86
2024/01/07 08:20:57;;;;;;;11.57;9.52;;;1.80;99.90;;;;;;5075400;28;20021;-87
2024/01/07 08:23:24;;;;;;;13.77;10.60;;;1.80;99.90;;;;;;5054057;28;20044;-87
2024/01/07 08:25:51;;;;;;;11.88;9.68;;;1.80;99.90;;;;;;5057551;28;20033;-86
2024/01/07 08:28:17;;;;;;;12.05;9.20;;;1.80;99.90;;;;;;5073798;28;20105;-87
2024/01/07 08:30:43;;;;;;;12.48;10.45;;;1.80;99.90;;;;;;5073574;28;20017;-85
2024/01/07 08:33:08;;;;;;;11.60;9.68;;;1.70;99.90;;;;;;5058936;28;20029;-86
2024/01/07 08:35:34;;;;;;;10.52;9.00;;;1.70;99.90;;;;;;5021608;28;20040;-85
2024/01/07 08:37:59;;;;;;;12.10;9.43;;;1.80;99.90;;;;;;5073012;28;20412;-87
2024/01/07 08:40:25;;;;;;;25.50;18.38;;;1.80;99.90;;;;;;5042803;28;20040;-87
2024/01/07 08:42:51;;;;;;;15.40;11.65;;;1.80;99.90;;;;;;5077010;28;20049;-86
2024/01/07 08:45:16;;;;;;;13.55;10.68;;;1.70;99.90;;;;;;5079015;28;20036;-87
2024/01/07 08:47:42;;;;;;;10.95;9.02;;;1.80;99.90;;;;;;5076032;28;20032;-85
2024/01/07 08:50:08;;;;;;;10.55;8.57;;;1.70;99.90;;;;;;5061532;28;20024;-86
2024/01/07 08:52:35;;;;;;;11.50;8.38;;;1.70;99.90;;;;;;5064322;28;20503;-86
2024/01/07 08:55:02;;;;;;;10.35;8.10;;;1.70;99.90;;;;;;5051416;28;20132;-85
2024/01/07 08:57:27;;;;;;;12.32;8.80;;;1.70;99.90;;;;;;5068576;28;20056;-87
2024/01/07 08:59:53;;;;;;;10.23;8.93;;;1.60;99.90;;;;;;5061604;28;20005;-84
2024/01/07 09:02:19;;;;;;;11.65;10.07;;;1.60;99.90;;;;;;5090385;28;20024;-85
2024/01/07 09:04:44;;;;;;;10.98;8.65;;;1.60;99.90;;;;;;5078792;28;20044;-86
2024/01/07 09:07:10;;;;;;;12.88;9.57;;;1.60;99.90;;;;;;5075269;28;20033;-85
2024/01/07 09:09:36;;;;;;;13.00;10.13;;;1.60;99.90;;;;;;5055424;28;20116;-85
2024/01/07 09:12:03;;;;;;;12.10;8.40;;;1.50;99.90;;;;;;5020020;28;20033;-85
2024/01/07 09:14:30;;;;;;;11.70;9.23;;;1.50;99.90;;;;;;5039880;28;20044;-84
2024/01/07 09:16:55;;;;;;;12.60;9.52;;;1.60;99.90;;;;;;5040096;28;20433;-86
2024/01/07 09:19:21;;;;;;;13.63;10.00;;;1.50;99.90;;;;;;5045781;28;20165;-86
2024/01/07 09:21:47;;;;;;;12.35;9.68;;;1.50;99.90;;;;;;5039766;28;20036;-87
2024/01/07 09:24:14;;;;;;;13.27;9.32;;;1.60;99.90;;;;;;5063989;28;20036;-85
2024/01/07 09:26:39;;;;;;;12.80;9.32;;;1.50;99.90;;;;;;5060398;28;20017;-86
2024/01/07 09:29:05;;;;;;;12.60;8.77;;;1.50;99.90;;;;;;5067446;28;20031;-84
2024/01/07 09:31:31;;;;;;;12.63;9.52;;;1.50;99.90;;;;;;5041086;28;20037;-87
2024/01/07 09:33:56;;;;;;;15.02;9.85;;;1.60;99.90;;;;;;5055977;28;20032;-84
2024/01/07 09:36:22;;;;;;;12.30;8.85;;;1.60;99.90;;;;;;5047401;28;20024;-83
2024/01/07 09:38:48;;;;;;;12.70;8.35;;;1.60;99.90;;;;;;5064739;28;20024;-84
2024/01/07 09:41:13;;;;;;;11.68;8.00;;;1.70;99.90;;;;;;5030661;28;20059;-84
2024/01/07 09:43:39;;;;;;;11.45;8.40;;;1.70;99.90;;;;;;5064100;28;20039;-86
2024/01/07 09:46:05;;;;;;;12.90;8.30;;;1.70;99.90;;;;;;5037815;28;20036;-85
2024/01/07 09:48:30;;;;;;;16.48;11.65;;;1.70;99.90;;;;;;5035675;28;20032;-83
2024/01/07 09:50:58;;;;;;;12.98;9.43;;;1.80;99.90;;;;;;5052162;28;20082;-84
2024/01/07 09:53:30;;;;;;;11.85;9.07;;;1.70;99.90;;;;;;5067259;28;20056;-84
2024/01/07 09:56:10;;;;;;;;;;;1.80;99.90;;;;;;5061612;28;20068;-84
2024/01/07 09:58:36;;;;;;;13.23;8.90;;;1.80;99.90;;;;;;5070577;28;19909;-84
2024/01/07 10:01:04;;;;;;;10.95;8.82;;;1.80;99.90;;;;;;5072220;28;20053;-84
2024/01/07 10:03:30;;;;;;;14.25;10.00;;;1.90;99.90;;;;;;5071924;28;20062;-83
2024/01/07 10:05:56;;;;;;;12.32;8.10;;;1.90;99.90;;;;;;5073399;28;20107;-83
2024/01/07 10:08:22;;;;;;;12.43;8.20;;;1.90;99.90;;;;;;5039249;28;20121;-84
2024/01/07 10:10:51;;;;;;;10.55;7.50;;;1.90;99.90;;;;;;5073838;28;20479;-83
2024/01/07 10:13:16;;;;;;;9.75;7.40;;;1.80;99.90;;;;;;5080312;28;20084;-82
2024/01/07 10:15:42;;;;;;;10.95;7.10;;;1.80;99.90;;;;;;5080501;28;20009;-83
2024/01/07 10:18:08;;;;;;;10.55;7.45;;;1.90;99.90;;;;;;5096856;28;20025;-82
2024/01/07 10:20:34;;;;;;;11.63;8.40;;;1.90;99.90;;;;;;5071615;28;20028;-82
2024/01/07 10:23:02;;;;;;;10.43;7.57;;;1.90;99.90;;;;;;5072266;28;20054;-83
2024/01/07 10:25:30;;;;;;;9.02;6.70;;;1.90;99.90;;;;;;5071632;28;20092;-83
2024/01/07 10:28:00;;;;;;;10.55;6.15;;;1.80;99.90;;;;;;5071947;28;20027;-83
2024/01/07 10:30:26;;;;;;;7.18;5.75;;;1.90;99.90;;;;;;5071886;28;20029;-84
2024/01/07 10:32:59;;;;;;;8.25;6.18;;;1.90;99.90;;;;;;5053969;28;20031;-83
2024/01/07 10:35:36;;;;;;;9.57;5.80;;;1.90;99.90;;;;;;5071483;28;20056;-83
2024/01/07 10:38:37;;;;;;;;;;;;;;;;;;;;;
2024/01/07 10:41:04;;;;;;;;;;;1.90;99.90;;;;;;5056963;28;20099;-83
2024/01/07 10:43:30;;;;;;;7.68;5.13;;;2.00;99.90;;;;;;5071306;28;19916;-83
2024/01/07 10:46:01;;;;;;;8.77;5.00;;;2.00;99.90;;;;;;5054861;28;20536;-83
2024/01/07 10:48:32;;;;;;;7.25;5.20;;;2.00;99.90;;;;;;5064501;28;20028;-83
2024/01/07 10:51:00;;;;;;;7.85;5.85;;;2.00;99.90;;;;;;5071325;28;20024;-84
2024/01/07 10:53:28;;;;;;;7.93;4.78;;;2.00;99.90;;;;;;5072523;28;20056;-84
2024/01/07 10:56:03;;;;;;;6.70;4.78;;;2.00;99.90;;;;;;5072835;28;20086;-84
2024/01/07 10:58:34;;;;;;;6.68;4.70;;;2.00;99.90;;;;;;5071111;28;20032;-83
2024/01/07 11:01:04;;;;;;;7.13;5.10;;;2.00;99.90;;;;;;5068614;28;20433;-84
2024/01/07 11:03:36;;;;;;;6.10;4.90;;;2.00;99.90;;;;;;5054085;28;20041;-82
2024/01/07 11:06:25;;;;;;;5.63;5.03;;;2.00;99.90;;;;;;5051972;28;20064;-81
2024/01/07 11:09:14;;;;;;;5.55;4.53;;;2.00;99.90;;;;;;5069069;28;20070;-83
2024/01/07 11:11:43;;;;;;;8.25;4.63;;;2.00;99.90;;;;;;5075052;28;20032;-82
2024/01/07 11:14:33;;;;;;;7.43;5.32;;;2.10;99.90;;;;;;5073307;28;20025;-83
2024/01/07 11:16:59;;;;;;;5.95;4.70;;;2.10;99.90;;;;;;5067541;28;20025;-82
2024/01/07 11:19:26;;;;;;;7.57;5.60;;;2.10;99.90;;;;;;5074928;28;20054;-84
2024/01/07 11:21:52;;;;;;;6.00;4.85;;;2.10;99.90;;;;;;5075244;28;20025;-82
2024/01/07 11:24:42;;;;;;;6.25;4.57;;;2.10;99.90;;;;;;5059752;28;20103;-82
2024/01/07 11:27:11;;;;;;;10.63;4.57;;;2.10;99.90;;;;;;5089266;28;20043;-83
2024/01/07 11:29:36;;;;;;;5.10;3.80;;;2.10;99.90;;;;;;5100264;28;20019;-83
2024/01/07 11:32:05;;;;;;;4.90;3.65;;;2.10;99.90;;;;;;5094377;28;20033;-84
2024/01/07 11:34:43;;;;;;;6.43;4.30;;;2.10;99.90;;;;;;5082603;28;20365;-84
2024/01/07 11:37:14;;;;;;;4.28;3.25;;;2.20;99.90;;;;;;5058907;28;20441;-84
2024/01/07 11:39:46;;;;;;;3.92;2.88;;;2.20;99.90;;;;;;5074855;28;20016;-84
2024/01/07 11:42:13;;;;;;;6.35;3.10;;;2.20;99.90;;;;;;5048338;28;20051;-83
2024/01/07 11:44:49;;;;;;;5.55;3.05;;;2.20;99.90;;;;;;5069561;28;20025;-83
2024/01/07 11:47:16;;;;;;;5.78;3.20;;;2.00;99.90;;;;;;5060269;28;20028;-85
2024/01/07 11:49:41;;;;;;;6.07;3.08;;;2.10;99.90;;;;;;5062620;28;20120;-84
2024/01/07 11:52:10;;;;;;;4.40;2.85;;;2.00;99.90;;;;;;5071974;28;20492;-83
2024/01/07 11:54:39;;;;;;;4.95;3.10;;;2.00;99.90;;;;;;5056849;28;20033;-85
2024/01/07 11:57:09;;;;;;;5.22;2.30;;;2.00;99.90;;;;;;5057109;28;20029;-85
2024/01/07 11:59:36;;;;;;;3.10;2.30;;;2.00;99.90;;;;;;5063238;28;20053;-84
2024/01/07 12:02:04;;;;;;;3.75;2.42;;;2.00;99.40;;;;;;5064023;28;20028;-84
2024/01/07 12:04:36;;;;;;;2.75;1.90;;;2.00;99.60;;;;;;5062058;28;20070;-85
2024/01/07 12:07:03;;;;;;;2.60;2.03;;;2.00;99.60;;;;;;5053733;28;20025;-84
2024/01/07 12:09:35;;;;;;;4.50;2.10;;;2.10;99.40;;;;;;5051469;28;20024;-84
2024/01/07 12:12:01;;;;;;;3.83;1.90;;;2.10;99.40;;;;;;5045583;28;20032;-84
2024/01/07 12:14:35;;;;;;;3.38;2.10;;;2.10;98.70;;;;;;5071445;28;20115;-82
2024/01/07 12:17:01;;;;;;;3.88;2.10;;;2.10;98.90;;;;;;5065266;28;20155;-84
2024/01/07 12:19:28;;;;;;;2.97;1.90;;;2.10;98.90;;;;;;5056546;28;20028;-83
2024/01/07 12:22:03;;;;;;;4.43;2.10;;;2.00;98.70;;;;;;5074076;28;20029;-83
2024/01/07 12:24:29;;;;;;;3.00;2.15;;;2.00;98.70;;;;;;5054677;28;20025;-83
2024/01/07 12:26:55;;;;;;;3.15;2.30;;;2.00;98.50;;;;;;5074080;28;20423;-84
2024/01/07 12:29:21;;;;;;;2.67;1.90;;;2.00;98.60;;;;;;5057745;28;20480;-84
2024/01/07 12:31:51;;;;;;;3.67;2.00;;;2.00;98.90;;;;;;5040740;28;20033;-83
2024/01/07 12:34:18;;;;;;;3.50;2.42;;;2.10;98.80;;;;;;5059832;28;20036;-85
2024/01/07 12:36:46;;;;;;;2.83;1.92;;;2.00;98.60;;;;;;5070407;28;20029;-85
2024/01/07 12:39:12;;;;;;;3.38;2.20;;;2.10;98.70;;;;;;5055580;28;20036;-85
2024/01/07 12:41:37;;;;;;;2.95;1.88;;;2.00;98.50;;;;;;5042671;28;20421;-84